sensor_id;sensor_type;location;lat;lon;timestamp;temperature;humidity
45012;DHT22;63444;48.148;11.542;2024-03-06T00:01:53;7.50;99.90
45012;DHT22;63444;48.148;11.542;2024-03-06T00:04:19;7.50;99.90
45012;DHT22;63444;48.148;11.542;2024-03-06T00:06:44;7.50;99.90
45012;DHT22;63444;48.148;11.542;2024-03-06T00:09:10;7.50;99.90
45012;DHT22;63444;48.148;11.542;2024-03-06T00:11:35;7.60;99.90
45012;DHT22;63444;48.148;11.542;2024-03-06T00:14:02;7.60;99.90
45012;DHT22;63444;48.148;11.542;2024-03-06T00:16:31;7.50;99.90
45012;DHT22;63444;48.148;11.542;2024-03-06T00:18:56;7.50;99.90
45012;DHT22;63444;48.148;11.542;2024-03-06T00:21:22;7.50;99.90
45012;DHT22;63444;48.148;11.542;2024-03-06T00:23:47;7.50;99.90
45012;DHT22;63444;48.148;11.542;2024-03-06T00:26:13;7.40;99.90
45012;DHT22;63444;48.148;11.542;2024-03-06T00:28:39;7.40;99.90
45012;DHT22;63444;48.148;11.542;2024-03-06T00:31:08;7.40;99.90
45012;DHT22;63444;48.148;11.542;2024-03-06T00:33:33;7.40;99.90
45012;DHT22;63444;48.148;11.542;2024-03-06T00:35:59;7.50;99.90
45012;DHT22;63444;48.148;11.542;2024-03-06T00:38:24;7.50;99.90
45012;DHT22;63444;48.148;11.542;2024-03-06T00:40:50;7.60;99.90
45012;DHT22;63444;48.148;11.542;2024-03-06T00:43:16;7.60;99.90
45012;DHT22;63444;48.148;11.542;2024-03-06T00:45:42;7.70;99.90
45012;DHT22;63444;48.148;11.542;2024-03-06T00:48:07;7.70;99.90
45012;DHT22;63444;48.148;11.542;2024-03-06T00:50:33;7.80;99.90
45012;DHT22;63444;48.148;11.542;2024-03-06T00:52:59;7.80;99.90
45012;DHT22;63444;48.148;11.542;2024-03-06T00:55:24;7.80;99.90
45012;DHT22;63444;48.148;11.542;2024-03-06T00:57:50;7.80;99.90
45012;DHT22;63444;48.148;11.542;2024-03-06T01:00:16;7.70;99.90
45012;DHT22;63444;48.148;11.542;2024-03-06T01:02:42;7.80;99.90
45012;DHT22;63444;48.148;11.542;2024-03-06T01:05:07;7.80;99.90
45012;DHT22;63444;48.148;11.542;2024-03-06T01:07:37;7.80;99.90
45012;DHT22;63444;48.148;11.542;2024-03-06T01:10:03;7.80;99.90
45012;DHT22;63444;48.148;11.542;2024-03-06T01:12:28;7.70;99.90
45012;DHT22;63444;48.148;11.542;2024-03-06T01:14:54;7.70;99.90
45012;DHT22;63444;48.148;11.542;2024-03-06T01:17:20;7.70;99.90
45012;DHT22;63444;48.148;11.542;2024-03-06T01:19:46;7.80;99.90
45012;DHT22;63444;48.148;11.542;2024-03-06T01:22:12;7.70;99.90
45012;DHT22;63444;48.148;11.542;2024-03-06T01:24:40;7.70;99.90
45012;DHT22;63444;48.148;11.542;2024-03-06T01:27:06;7.60;99.90
45012;DHT22;63444;48.148;11.542;2024-03-06T01:29:32;7.50;99.90
45012;DHT22;63444;48.148;11.542;2024-03-06T01:31:58;7.50;99.90
45012;DHT22;63444;48.148;11.542;2024-03-06T01:34:24;7.60;99.90
45012;DHT22;63444;48.148;11.542;2024-03-06T01:36:50;7.60;99.90
45012;DHT22;63444;48.148;11.542;2024-03-06T01:39:16;7.60;99.90
45012;DHT22;63444;48.148;11.542;2024-03-06T01:41:49;7.60;99.90
45012;DHT22;63444;48.148;11.542;2024-03-06T01:44:17;7.60;99.90
45012;DHT22;63444;48.148;11.542;2024-03-06T01:46:43;7.50;99.90
45012;DHT22;63444;48.148;11.542;2024-03-06T01:49:11;7.50;99.90
45012;DHT22;63444;48.148;11.542;2024-03-06T01:51:39;7.40;99.90
45012;DHT22;63444;48.148;11.542;2024-03-06T01:54:05;7.30;99.90
45012;DHT22;63444;48.148;11.542;2024-03-06T01:56:33;7.30;99.90
45012;DHT22;63444;48.148;11.542;2024-03-06T01:58:59;7.20;99.90
45012;DHT22;63444;48.148;11.542;2024-03-06T02:01:25;7.30;99.90
45012;DHT22;63444;48.148;11.542;2024-03-06T02:03:51;7.30;99.90
45012;DHT22;63444;48.148;11.542;2024-03-06T02:06:18;7.40;99.90
45012;DHT22;63444;48.148;11.542;2024-03-06T02:08:45;7.30;99.90
45012;DHT22;63444;48.148;11.542;2024-03-06T02:11:12;7.30;99.90
45012;DHT22;63444;48.148;11.542;2024-03-06T02:13:39;7.20;99.90
45012;DHT22;63444;48.148;11.542;2024-03-06T02:16:05;7.30;99.90
45012;DHT22;63444;48.148;11.542;2024-03-06T02:18:31;7.20;99.90
45012;DHT22;63444;48.148;11.542;2024-03-06T02:20:56;7.20;99.90
45012;DHT22;63444;48.148;11.542;2024-03-06T02:23:22;7.20;99.90
45012;DHT22;63444;48.148;11.542;2024-03-06T02:25:48;7.20;99.90
45012;DHT22;63444;48.148;11.542;2024-03-06T02:28:14;7.20;99.90
45012;DHT22;63444;48.148;11.542;2024-03-06T02:30:39;7.20;99.90
45012;DHT22;63444;48.148;11.542;2024-03-06T02:33:06;7.20;99.90
45012;DHT22;63444;48.148;11.542;2024-03-06T02:35:32;7.20;99.90
45012;DHT22;63444;48.148;11.542;2024-03-06T02:37:59;7.20;99.90
45012;DHT22;63444;48.148;11.542;2024-03-06T02:40:25;7.20;99.90
45012;DHT22;63444;48.148;11.542;2024-03-06T02:42:50;7.20;99.90
45012;DHT22;63444;48.148;11.542;2024-03-06T02:45:16;7.20;99.90
45012;DHT22;63444;48.148;11.542;2024-03-06T02:47:42;7.20;99.90
45012;DHT22;63444;48.148;11.542;2024-03-06T02:50:09;7.20;99.90
45012;DHT22;63444;48.148;11.542;2024-03-06T02:52:36;7.20;99.90
45012;DHT22;63444;48.148;11.542;2024-03-06T02:55:02;7.20;99.90
45012;DHT22;63444;48.148;11.542;2024-03-06T02:57:27;7.20;99.90
45012;DHT22;63444;48.148;11.542;2024-03-06T02:59:57;7.20;99.90
45012;DHT22;63444;48.148;11.542;2024-03-06T03:02:23;7.20;99.90
45012;DHT22;63444;48.148;11.542;2024-03-06T03:04:49;7.20;99.90
45012;DHT22;63444;48.148;11.542;2024-03-06T03:07:15;7.20;99.90
45012;DHT22;63444;48.148;11.542;2024-03-06T03:09:41;7.20;99.90
45012;DHT22;63444;48.148;11.542;2024-03-06T03:12:07;7.20;99.90
45012;DHT22;63444;48.148;11.542;2024-03-06T03:14:32;7.20;99.90
45012;DHT22;63444;48.148;11.542;2024-03-06T03:17:00;7.20;99.90
45012;DHT22;63444;48.148;11.542;2024-03-06T03:19:25;7.20;99.90
45012;DHT22;63444;48.148;11.542;2024-03-06T03:21:51;7.20;99.90
45012;DHT22;63444;48.148;11.542;2024-03-06T03:24:17;7.20;99.90
45012;DHT22;63444;48.148;11.542;2024-03-06T03:26:45;7.20;99.90
45012;DHT22;63444;48.148;11.542;2024-03-06T03:29:11;7.30;99.90
45012;DHT22;63444;48.148;11.542;2024-03-06T03:31:36;7.30;99.90
45012;DHT22;63444;48.148;11.542;2024-03-06T03:34:05;7.30;99.90
45012;DHT22;63444;48.148;11.542;2024-03-06T03:36:30;7.20;99.90
45012;DHT22;63444;48.148;11.542;2024-03-06T03:38:56;7.20;99.90
45012;DHT22;63444;48.148;11.542;2024-03-06T03:41:22;7.20;99.90
45012;DHT22;63444;48.148;11.542;2024-03-06T03:43:48;7.20;99.90
45012;DHT22;63444;48.148;11.542;2024-03-06T03:46:14;7.30;99.90
45012;DHT22;63444;48.148;11.542;2024-03-06T03:48:40;7.20;99.90
45012;DHT22;63444;48.148;11.542;2024-03-06T03:51:06;7.20;99.90
45012;DHT22;63444;48.148;11.542;2024-03-06T03:53:35;7.20;99.90
45012;DHT22;63444;48.148;11.542;2024-03-06T03:56:01;7.20;99.90
45012;DHT22;63444;48.148;11.542;2024-03-06T03:58:28;7.20;99.90
45012;DHT22;63444;48.148;11.542;2024-03-06T04:00:54;7.30;99.90
45012;DHT22;63444;48.148;11.542;2024-03-06T04:03:21;7.30;99.90
45012;DHT22;63444;48.148;11.542;2024-03-06T04:05:48;7.30;99.90
45012;DHT22;63444;48.148;11.542;2024-03-06T04:08:14;7.30;99.90
45012;DHT22;63444;48.148;11.542;2024-03-06T04:10:41;7.30;99.90
45012;DHT22;63444;48.148;11.542;2024-03-06T04:13:07;7.30;99.90
45012;DHT22;63444;48.148;11.542;2024-03-06T04:15:32;7.30;99.90
45012;DHT22;63444;48.148;11.542;2024-03-06T04:17:58;7.30;99.90
45012;DHT22;63444;48.148;11.542;2024-03-06T04:20:24;7.30;99.90
45012;DHT22;63444;48.148;11.542;2024-03-06T04:22:49;7.30;99.90
45012;DHT22;63444;48.148;11.542;2024-03-06T04:25:16;7.30;99.90
45012;DHT22;63444;48.148;11.542;2024-03-06T04:27:42;7.30;99.90
45012;DHT22;63444;48.148;11.542;2024-03-06T04:30:08;7.30;99.90
45012;DHT22;63444;48.148;11.542;2024-03-06T04:32:34;7.30;99.90
45012;DHT22;63444;48.148;11.542;2024-03-06T04:35:00;7.30;99.90
45012;DHT22;63444;48.148;11.542;2024-03-06T04:37:26;7.40;99.90
45012;DHT22;63444;48.148;11.542;2024-03-06T04:39:52;7.30;99.90
45012;DHT22;63444;48.148;11.542;2024-03-06T04:42:18;7.30;99.90
45012;DHT22;63444;48.148;11.542;2024-03-06T04:44:45;7.30;99.90
45012;DHT22;63444;48.148;11.542;2024-03-06T04:47:11;7.30;99.90
45012;DHT22;63444;48.148;11.542;2024-03-06T04:49:37;7.40;99.90
45012;DHT22;63444;48.148;11.542;2024-03-06T04:52:02;7.40;99.90
45012;DHT22;63444;48.148;11.542;2024-03-06T04:54:29;7.30;99.90
45012;DHT22;63444;48.148;11.542;2024-03-06T04:56:55;7.30;99.90
45012;DHT22;63444;48.148;11.542;2024-03-06T04:59:21;7.30;99.90
45012;DHT22;63444;48.148;11.542;2024-03-06T05:01:46;7.20;99.90
45012;DHT22;63444;48.148;11.542;2024-03-06T05:04:12;7.10;99.90
45012;DHT22;63444;48.148;11.542;2024-03-06T05:06:38;7.10;99.90
45012;DHT22;63444;48.148;11.542;2024-03-06T05:09:04;7.10;99.90
45012;DHT22;63444;48.148;11.542;2024-03-06T05:11:31;7.10;99.90
45012;DHT22;63444;48.148;11.542;2024-03-06T05:14:00;7.00;99.90
45012;DHT22;63444;48.148;11.542;2024-03-06T05:16:26;7.10;99.90
45012;DHT22;63444;48.148;11.542;2024-03-06T05:18:52;7.10;99.90
45012;DHT22;63444;48.148;11.542;2024-03-06T05:21:18;7.10;99.90
45012;DHT22;63444;48.148;11.542;2024-03-06T05:23:44;7.10;99.90
45012;DHT22;63444;48.148;11.542;2024-03-06T05:26:09;7.10;99.90
45012;DHT22;63444;48.148;11.542;2024-03-06T05:28:35;7.10;99.90
45012;DHT22;63444;48.148;11.542;2024-03-06T05:31:00;7.10;99.90
45012;DHT22;63444;48.148;11.542;2024-03-06T05:33:26;7.10;99.90
45012;DHT22;63444;48.148;11.542;2024-03-06T05:35:54;7.10;99.90
45012;DHT22;63444;48.148;11.542;2024-03-06T05:38:19;7.10;99.90
45012;DHT22;63444;48.148;11.542;2024-03-06T05:40:47;7.10;99.90
45012;DHT22;63444;48.148;11.542;2024-03-06T05:43:13;7.00;99.90
45012;DHT22;63444;48.148;11.542;2024-03-06T05:45:38;7.00;99.90
45012;DHT22;63444;48.148;11.542;2024-03-06T05:48:04;7.00;99.90
45012;DHT22;63444;48.148;11.542;2024-03-06T05:50:30;7.00;99.90
45012;DHT22;63444;48.148;11.542;2024-03-06T05:52:57;6.90;99.90
45012;DHT22;63444;48.148;11.542;2024-03-06T05:55:23;7.00;99.90
45012;DHT22;63444;48.148;11.542;2024-03-06T05:57:49;7.00;99.90
45012;DHT22;63444;48.148;11.542;2024-03-06T06:00:15;6.90;99.90
45012;DHT22;63444;48.148;11.542;2024-03-06T06:02:43;7.00;99.90
45012;DHT22;63444;48.148;11.542;2024-03-06T06:05:10;7.00;99.90
45012;DHT22;63444;48.148;11.542;2024-03-06T06:07:35;7.00;99.90
45012;DHT22;63444;48.148;11.542;2024-03-06T06:10:04;6.80;99.90
45012;DHT22;63444;48.148;11.542;2024-03-06T06:12:31;6.90;99.90
45012;DHT22;63444;48.148;11.542;2024-03-06T06:14:57;6.90;99.90
45012;DHT22;63444;48.148;11.542;2024-03-06T06:17:22;6.90;99.90
45012;DHT22;63444;48.148;11.542;2024-03-06T06:19:48;6.90;99.90
45012;DHT22;63444;48.148;11.542;2024-03-06T06:22:13;6.90;99.90
45012;DHT22;63444;48.148;11.542;2024-03-06T06:24:39;6.90;99.90
45012;DHT22;63444;48.148;11.542;2024-03-06T06:27:06;6.80;99.90
45012;DHT22;63444;48.148;11.542;2024-03-06T06:29:31;6.90;99.90
45012;DHT22;63444;48.148;11.542;2024-03-06T06:31:57;6.90;99.90
45012;DHT22;63444;48.148;11.542;2024-03-06T06:34:23;6.80;99.90
45012;DHT22;63444;48.148;11.542;2024-03-06T06:36:50;6.90;99.90
45012;DHT22;63444;48.148;11.542;2024-03-06T06:39:18;6.80;99.90
45012;DHT22;63444;48.148;11.542;2024-03-06T06:41:43;6.90;99.90
45012;DHT22;63444;48.148;11.542;2024-03-06T06:44:09;6.90;99.90
45012;DHT22;63444;48.148;11.542;2024-03-06T06:46:34;6.80;99.90
45012;DHT22;63444;48.148;11.542;2024-03-06T06:49:00;6.70;99.90
45012;DHT22;63444;48.148;11.542;2024-03-06T06:51:26;6.70;99.90
45012;DHT22;63444;48.148;11.542;2024-03-06T06:53:51;6.70;99.90
45012;DHT22;63444;48.148;11.542;2024-03-06T06:56:17;6.80;99.90
45012;DHT22;63444;48.148;11.542;2024-03-06T06:58:42;6.70;99.90
45012;DHT22;63444;48.148;11.542;2024-03-06T07:01:09;6.80;99.90
45012;DHT22;63444;48.148;11.542;2024-03-06T07:03:35;6.80;99.90
45012;DHT22;63444;48.148;11.542;2024-03-06T07:06:01;6.80;99.90
45012;DHT22;63444;48.148;11.542;2024-03-06T07:08:28;6.80;99.90
45012;DHT22;63444;48.148;11.542;2024-03-06T07:10:54;6.80;99.90
45012;DHT22;63444;48.148;11.542;2024-03-06T07:13:20;6.80;99.90
45012;DHT22;63444;48.148;11.542;2024-03-06T07:15:46;6.80;99.90
45012;DHT22;63444;48.148;11.542;2024-03-06T07:18:12;6.90;99.90
45012;DHT22;63444;48.148;11.542;2024-03-06T07:20:39;6.90;99.90
45012;DHT22;63444;48.148;11.542;2024-03-06T07:23:05;6.80;99.90
45012;DHT22;63444;48.148;11.542;2024-03-06T07:25:30;6.80;99.90
45012;DHT22;63444;48.148;11.542;2024-03-06T07:27:56;6.80;99.90
45012;DHT22;63444;48.148;11.542;2024-03-06T07:30:22;6.80;99.90
45012;DHT22;63444;48.148;11.542;2024-03-06T07:32:48;6.80;99.90
45012;DHT22;63444;48.148;11.542;2024-03-06T07:35:13;6.80;99.90
45012;DHT22;63444;48.148;11.542;2024-03-06T07:37:39;6.80;99.90
45012;DHT22;63444;48.148;11.542;2024-03-06T07:40:07;6.80;99.90
45012;DHT22;63444;48.148;11.542;2024-03-06T07:42:34;6.80;99.90
45012;DHT22;63444;48.148;11.542;2024-03-06T07:45:00;6.80;99.90
45012;DHT22;63444;48.148;11.542;2024-03-06T07:47:26;6.70;99.90
45012;DHT22;63444;48.148;11.542;2024-03-06T07:49:52;6.70;99.90
45012;DHT22;63444;48.148;11.542;2024-03-06T07:52:18;6.70;99.90
45012;DHT22;63444;48.148;11.542;2024-03-06T07:54:43;6.70;99.90
45012;DHT22;63444;48.148;11.542;2024-03-06T07:57:09;6.70;99.90
45012;DHT22;63444;48.148;11.542;2024-03-06T07:59:35;6.80;99.90
45012;DHT22;63444;48.148;11.542;2024-03-06T08:02:01;6.80;99.90
45012;DHT22;63444;48.148;11.542;2024-03-06T08:04:26;6.80;99.90
45012;DHT22;63444;48.148;11.542;2024-03-06T08:06:52;6.70;99.90
45012;DHT22;63444;48.148;11.542;2024-03-06T08:09:18;6.80;99.90
45012;DHT22;63444;48.148;11.542;2024-03-06T08:11:45;6.70;99.90
45012;DHT22;63444;48.148;11.542;2024-03-06T08:14:11;6.80;99.90
45012;DHT22;63444;48.148;11.542;2024-03-06T08:16:36;6.80;99.90
45012;DHT22;63444;48.148;11.542;2024-03-06T08:19:03;6.80;99.90
45012;DHT22;63444;48.148;11.542;2024-03-06T08:21:28;6.80;99.90
45012;DHT22;63444;48.148;11.542;2024-03-06T08:23:54;6.80;99.90
45012;DHT22;63444;48.148;11.542;2024-03-06T08:26:19;6.80;99.90
45012;DHT22;63444;48.148;11.542;2024-03-06T08:28:45;6.80;99.90
45012;DHT22;63444;48.148;11.542;2024-03-06T08:31:11;6.90;99.90
45012;DHT22;63444;48.148;11.542;2024-03-06T08:33:36;6.80;99.90
45012;DHT22;63444;48.148;11.542;2024-03-06T08:36:03;6.90;99.90
45012;DHT22;63444;48.148;11.542;2024-03-06T08:38:28;6.80;99.90
45012;DHT22;63444;48.148;11.542;2024-03-06T08:40:54;6.90;99.90
45012;DHT22;63444;48.148;11.542;2024-03-06T08:43:20;6.90;99.90
45012;DHT22;63444;48.148;11.542;2024-03-06T08:45:47;6.90;99.90
45012;DHT22;63444;48.148;11.542;2024-03-06T08:48:12;6.90;99.90
45012;DHT22;63444;48.148;11.542;2024-03-06T08:50:39;6.90;99.90
45012;DHT22;63444;48.148;11.542;2024-03-06T08:53:04;7.00;99.90
45012;DHT22;63444;48.148;11.542;2024-03-06T08:55:30;6.90;99.90
45012;DHT22;63444;48.148;11.542;2024-03-06T08:57:56;7.00;99.90
45012;DHT22;63444;48.148;11.542;2024-03-06T09:00:21;6.90;99.90
45012;DHT22;63444;48.148;11.542;2024-03-06T09:02:47;6.90;99.90
45012;DHT22;63444;48.148;11.542;2024-03-06T09:05:12;7.00;99.90
45012;DHT22;63444;48.148;11.542;2024-03-06T09:07:39;7.00;99.90
45012;DHT22;63444;48.148;11.542;2024-03-06T09:10:07;7.00;99.90
45012;DHT22;63444;48.148;11.542;2024-03-06T09:12:33;7.00;99.90
45012;DHT22;63444;48.148;11.542;2024-03-06T09:14:59;7.00;99.90
45012;DHT22;63444;48.148;11.542;2024-03-06T09:17:26;6.90;99.90
45012;DHT22;63444;48.148;11.542;2024-03-06T09:19:52;7.00;99.90
45012;DHT22;63444;48.148;11.542;2024-03-06T09:22:17;7.00;99.90
45012;DHT22;63444;48.148;11.542;2024-03-06T09:24:43;7.00;99.90
45012;DHT22;63444;48.148;11.542;2024-03-06T09:27:09;7.00;99.90
45012;DHT22;63444;48.148;11.542;2024-03-06T09:29:34;7.00;99.90
45012;DHT22;63444;48.148;11.542;2024-03-06T09:32:00;7.00;99.90
45012;DHT22;63444;48.148;11.542;2024-03-06T09:34:26;7.00;99.90
45012;DHT22;63444;48.148;11.542;2024-03-06T09:36:51;7.00;99.90
45012;DHT22;63444;48.148;11.542;2024-03-06T09:39:18;7.00;99.90
45012;DHT22;63444;48.148;11.542;2024-03-06T09:41:49;7.00;99.90
45012;DHT22;63444;48.148;11.542;2024-03-06T09:44:16;7.10;99.90
45012;DHT22;63444;48.148;11.542;2024-03-06T09:46:46;7.10;99.90
45012;DHT22;63444;48.148;11.542;2024-03-06T09:49:13;7.10;99.90
45012;DHT22;63444;48.148;11.542;2024-03-06T09:51:46;7.10;99.90
45012;DHT22;63444;48.148;11.542;2024-03-06T09:54:13;7.10;99.90
45012;DHT22;63444;48.148;11.542;2024-03-06T09:56:41;7.10;99.90
45012;DHT22;63444;48.148;11.542;2024-03-06T09:59:08;7.10;99.90
45012;DHT22;63444;48.148;11.542;2024-03-06T10:01:46;7.10;99.90
45012;DHT22;63444;48.148;11.542;2024-03-06T10:04:23;7.20;99.90
45012;DHT22;63444;48.148;11.542;2024-03-06T10:06:58;7.20;99.90
45012;DHT22;63444;48.148;11.542;2024-03-06T10:09:25;7.20;99.90
45012;DHT22;63444;48.148;11.542;2024-03-06T10:11:51;7.20;99.90
45012;DHT22;63444;48.148;11.542;2024-03-06T10:14:22;7.20;99.90
45012;DHT22;63444;48.148;11.542;2024-03-06T10:16:55;7.20;99.90
45012;DHT22;63444;48.148;11.542;2024-03-06T10:19:28;7.20;99.90
45012;DHT22;63444;48.148;11.542;2024-03-06T10:21:55;7.30;99.90
45012;DHT22;63444;48.148;11.542;2024-03-06T10:24:24;7.30;99.90
45012;DHT22;63444;48.148;11.542;2024-03-06T10:26:55;7.30;99.90
45012;DHT22;63444;48.148;11.542;2024-03-06T10:29:24;7.30;99.90
45012;DHT22;63444;48.148;11.542;2024-03-06T10:31:54;7.30;99.90
45012;DHT22;63444;48.148;11.542;2024-03-06T10:34:21;7.30;99.90
45012;DHT22;63444;48.148;11.542;2024-03-06T10:36:58;7.30;99.90
45012;DHT22;63444;48.148;11.542;2024-03-06T10:39:24;7.30;99.90
45012;DHT22;63444;48.148;11.542;2024-03-06T10:41:54;7.30;99.90
45012;DHT22;63444;48.148;11.542;2024-03-06T10:44:24;7.30;99.90
45012;DHT22;63444;48.148;11.542;2024-03-06T10:47:05;7.30;99.90
45012;DHT22;63444;48.148;11.542;2024-03-06T10:49:31;7.30;99.90
45012;DHT22;63444;48.148;11.542;2024-03-06T10:52:00;7.30;99.90
45012;DHT22;63444;48.148;11.542;2024-03-06T10:54:29;7.30;99.90
45012;DHT22;63444;48.148;11.542;2024-03-06T10:56:56;7.30;99.90
45012;DHT22;63444;48.148;11.542;2024-03-06T10:59:25;7.30;99.90
45012;DHT22;63444;48.148;11.542;2024-03-06T11:01:53;7.30;99.90
45012;DHT22;63444;48.148;11.542;2024-03-06T11:04:20;7.40;99.90
45012;DHT22;63444;48.148;11.542;2024-03-06T11:06:45;7.40;99.90
45012;DHT22;63444;48.148;11.542;2024-03-06T11:09:11;7.40;99.90
45012;DHT22;63444;48.148;11.542;2024-03-06T11:11:53;7.40;99.90
45012;DHT22;63444;48.148;11.542;2024-03-06T11:14:23;7.50;99.90
45012;DHT22;63444;48.148;11.542;2024-03-06T11:17:03;7.50;99.90
45012;DHT22;63444;48.148;11.542;2024-03-06T11:20:07;7.50;99.90
45012;DHT22;63444;48.148;11.542;2024-03-06T11:22:18;7.60;99.90
45012;DHT22;63444;48.148;11.542;2024-03-06T11:24:44;7.60;99.90
45012;DHT22;63444;48.148;11.542;2024-03-06T11:27:10;7.60;99.90
45012;DHT22;63444;48.148;11.542;2024-03-06T11:30:03;7.60;99.90
45012;DHT22;63444;48.148;11.542;2024-03-06T11:32:35;7.60;99.90
45012;DHT22;63444;48.148;11.542;2024-03-06T11:35:00;7.60;99.90
45012;DHT22;63444;48.148;11.542;2024-03-06T11:37:26;7.60;99.90
45012;DHT22;63444;48.148;11.542;2024-03-06T11:39:51;7.60;99.90
45012;DHT22;63444;48.148;11.542;2024-03-06T11:42:34;7.60;99.90
45012;DHT22;63444;48.148;11.542;2024-03-06T11:45:13;7.60;99.90
45012;DHT22;63444;48.148;11.542;2024-03-06T11:48:01;7.60;99.90
45012;DHT22;63444;48.148;11.542;2024-03-06T11:50:28;7.60;99.90
45012;DHT22;63444;48.148;11.542;2024-03-06T11:52:55;7.60;99.90
45012;DHT22;63444;48.148;11.542;2024-03-06T11:55:22;7.60;99.90
45012;DHT22;63444;48.148;11.542;2024-03-06T11:57:47;7.60;99.90
45012;DHT22;63444;48.148;11.542;2024-03-06T12:00:13;7.60;99.90
45012;DHT22;63444;48.148;11.542;2024-03-06T12:02:40;7.50;99.90
45012;DHT22;63444;48.148;11.542;2024-03-06T12:05:07;7.60;99.90
45012;DHT22;63444;48.148;11.542;2024-03-06T12:07:48;7.50;99.90
45012;DHT22;63444;48.148;11.542;2024-03-06T12:10:13;7.50;99.90
45012;DHT22;63444;48.148;11.542;2024-03-06T12:12:40;7.40;99.90
45012;DHT22;63444;48.148;11.542;2024-03-06T12:15:09;7.40;99.90
45012;DHT22;63444;48.148;11.542;2024-03-06T12:17:47;7.30;99.90
45012;DHT22;63444;48.148;11.542;2024-03-06T12:20:17;7.30;99.90
45012;DHT22;63444;48.148;11.542;2024-03-06T12:22:51;7.30;99.90
45012;DHT22;63444;48.148;11.542;2024-03-06T12:25:21;7.30;99.90
45012;DHT22;63444;48.148;11.542;2024-03-06T12:27:47;7.20;99.90
45012;DHT22;63444;48.148;11.542;2024-03-06T12:30:19;7.30;99.90
45012;DHT22;63444;48.148;11.542;2024-03-06T12:32:56;7.30;99.90
45012;DHT22;63444;48.148;11.542;2024-03-06T12:35:26;7.30;99.90
45012;DHT22;63444;48.148;11.542;2024-03-06T12:37:52;7.30;99.90
45012;DHT22;63444;48.148;11.542;2024-03-06T12:40:19;7.40;99.90
45012;DHT22;63444;48.148;11.542;2024-03-06T12:42:45;7.40;99.90
45012;DHT22;63444;48.148;11.542;2024-03-06T12:45:12;7.40;99.90
45012;DHT22;63444;48.148;11.542;2024-03-06T12:47:41;7.40;99.90
45012;DHT22;63444;48.148;11.542;2024-03-06T12:50:07;7.50;99.90
45012;DHT22;63444;48.148;11.542;2024-03-06T12:52:34;7.50;99.90
45012;DHT22;63444;48.148;11.542;2024-03-06T12:55:00;7.50;99.90
45012;DHT22;63444;48.148;11.542;2024-03-06T12:57:26;7.50;99.90
45012;DHT22;63444;48.148;11.542;2024-03-06T12:59:53;7.50;99.90
45012;DHT22;63444;48.148;11.542;2024-03-06T13:02:18;7.50;99.90
45012;DHT22;63444;48.148;11.542;2024-03-06T13:04:44;7.50;99.90
45012;DHT22;63444;48.148;11.542;2024-03-06T13:07:11;7.50;99.90
45012;DHT22;63444;48.148;11.542;2024-03-06T13:09:36;7.50;99.90
45012;DHT22;63444;48.148;11.542;2024-03-06T13:12:04;7.50;99.90
45012;DHT22;63444;48.148;11.542;2024-03-06T13:14:29;7.50;99.90
45012;DHT22;63444;48.148;11.542;2024-03-06T13:16:56;7.50;99.90
45012;DHT22;63444;48.148;11.542;2024-03-06T13:19:21;7.50;99.90
45012;DHT22;63444;48.148;11.542;2024-03-06T13:21:47;7.60;99.90
45012;DHT22;63444;48.148;11.542;2024-03-06T13:24:13;7.60;99.90
45012;DHT22;63444;48.148;11.542;2024-03-06T13:26:39;7.50;99.90
45012;DHT22;63444;48.148;11.542;2024-03-06T13:29:06;7.60;99.90
45012;DHT22;63444;48.148;11.542;2024-03-06T13:31:32;7.50;99.90
45012;DHT22;63444;48.148;11.542;2024-03-06T13:34:00;7.50;99.90
45012;DHT22;63444;48.148;11.542;2024-03-06T13:36:25;7.50;99.90
45012;DHT22;63444;48.148;11.542;2024-03-06T13:38:51;7.50;99.90
45012;DHT22;63444;48.148;11.542;2024-03-06T13:41:17;7.50;99.90
45012;DHT22;63444;48.148;11.542;2024-03-06T13:43:43;7.50;99.90
45012;DHT22;63444;48.148;11.542;2024-03-06T13:46:09;7.50;99.90
45012;DHT22;63444;48.148;11.542;2024-03-06T13:48:34;7.50;99.90
45012;DHT22;63444;48.148;11.542;2024-03-06T13:51:02;7.50;99.90
45012;DHT22;63444;48.148;11.542;2024-03-06T13:53:27;7.60;99.90
45012;DHT22;63444;48.148;11.542;2024-03-06T13:55:53;7.60;99.90
45012;DHT22;63444;48.148;11.542;2024-03-06T13:58:18;7.60;99.90
45012;DHT22;63444;48.148;11.542;2024-03-06T14:00:44;7.60;99.90
45012;DHT22;63444;48.148;11.542;2024-03-06T14:03:11;7.60;99.90
45012;DHT22;63444;48.148;11.542;2024-03-06T14:05:38;7.60;99.90
45012;DHT22;63444;48.148;11.542;2024-03-06T14:08:05;7.60;99.90
45012;DHT22;63444;48.148;11.542;2024-03-06T14:10:30;7.70;99.90
45012;DHT22;63444;48.148;11.542;2024-03-06T14:13:00;7.60;99.90
45012;DHT22;63444;48.148;11.542;2024-03-06T14:15:26;7.60;99.90
45012;DHT22;63444;48.148;11.542;2024-03-06T14:17:52;7.70;99.90
45012;DHT22;63444;48.148;11.542;2024-03-06T14:20:22;7.60;99.90
45012;DHT22;63444;48.148;11.542;2024-03-06T14:22:47;7.60;99.90
45012;DHT22;63444;48.148;11.542;2024-03-06T14:25:14;7.60;99.90
45012;DHT22;63444;48.148;11.542;2024-03-06T14:27:39;7.60;99.90
45012;DHT22;63444;48.148;11.542;2024-03-06T14:30:06;7.60;99.90
45012;DHT22;63444;48.148;11.542;2024-03-06T14:32:36;7.60;99.90
45012;DHT22;63444;48.148;11.542;2024-03-06T14:35:02;7.70;99.90
45012;DHT22;63444;48.148;11.542;2024-03-06T14:37:28;7.60;99.90
45012;DHT22;63444;48.148;11.542;2024-03-06T14:39:54;7.70;99.90
45012;DHT22;63444;48.148;11.542;2024-03-06T14:42:19;7.60;99.90
45012;DHT22;63444;48.148;11.542;2024-03-06T14:44:45;7.60;99.90
45012;DHT22;63444;48.148;11.542;2024-03-06T14:47:12;7.70;99.90
45012;DHT22;63444;48.148;11.542;2024-03-06T14:49:38;7.60;99.90
45012;DHT22;63444;48.148;11.542;2024-03-06T14:52:03;7.70;99.90
45012;DHT22;63444;48.148;11.542;2024-03-06T14:54:30;7.70;99.90
45012;DHT22;63444;48.148;11.542;2024-03-06T14:56:56;7.70;99.90
45012;DHT22;63444;48.148;11.542;2024-03-06T14:59:21;7.70;99.90
45012;DHT22;63444;48.148;11.542;2024-03-06T15:01:47;7.70;99.90
45012;DHT22;63444;48.148;11.542;2024-03-06T15:04:13;7.70;99.90
45012;DHT22;63444;48.148;11.542;2024-03-06T15:06:39;7.60;99.90
45012;DHT22;63444;48.148;11.542;2024-03-06T15:09:05;7.70;99.90
45012;DHT22;63444;48.148;11.542;2024-03-06T15:11:31;7.70;99.90
45012;DHT22;63444;48.148;11.542;2024-03-06T15:14:01;7.70;99.90
45012;DHT22;63444;48.148;11.542;2024-03-06T15:16:27;7.60;99.90
45012;DHT22;63444;48.148;11.542;2024-03-06T15:18:52;7.70;99.90
45012;DHT22;63444;48.148;11.542;2024-03-06T15:21:21;7.70;99.90
45012;DHT22;63444;48.148;11.542;2024-03-06T15:23:46;7.70;99.90
45012;DHT22;63444;48.148;11.542;2024-03-06T15:26:15;7.80;99.90
45012;DHT22;63444;48.148;11.542;2024-03-06T15:28:41;7.70;99.90